sensor_id;sensor_type;location;lat;lon;timestamp;temperature;humidity
76897;SHT30;65856;52.178;21.176;2023-04-16T00:01:59;9.76;79.67
76897;SHT30;65856;52.178;21.176;2023-04-16T00:04:30;9.75;79.77
76897;SHT30;65856;52.178;21.176;2023-04-16T00:07:00;9.74;79.83
76897;SHT30;65856;52.178;21.176;2023-04-16T00:09:31;9.73;79.90
76897;SHT30;65856;52.178;21.176;2023-04-16T00:12:02;9.73;79.95
76897;SHT30;65856;52.178;21.176;2023-04-16T00:14:34;9.72;79.99
76897;SHT30;65856;52.178;21.176;2023-04-16T00:17:04;9.72;80.00
76897;SHT30;65856;52.178;21.176;2023-04-16T00:19:35;9.72;80.06
76897;SHT30;65856;52.178;21.176;2023-04-16T00:22:06;9.72;80.10
76897;SHT30;65856;52.178;21.176;2023-04-16T00:24:37;9.69;80.16
76897;SHT30;65856;52.178;21.176;2023-04-16T00:27:07;9.67;80.25
76897;SHT30;65856;52.178;21.176;2023-04-16T00:29:38;9.66;80.30
76897;SHT30;65856;52.178;21.176;2023-04-16T00:32:09;9.66;80.36
76897;SHT30;65856;52.178;21.176;2023-04-16T00:34:40;9.66;80.42
76897;SHT30;65856;52.178;21.176;2023-04-16T00:37:10;9.68;80.44
76897;SHT30;65856;52.178;21.176;2023-04-16T00:39:41;9.69;80.40
76897;SHT30;65856;52.178;21.176;2023-04-16T00:42:12;9.70;80.41
76897;SHT30;65856;52.178;21.176;2023-04-16T00:44:43;9.72;80.39
76897;SHT30;65856;52.178;21.176;2023-04-16T00:47:14;9.73;80.35
76897;SHT30;65856;52.178;21.176;2023-04-16T00:49:46;9.75;80.34
76897;SHT30;65856;52.178;21.176;2023-04-16T00:52:17;9.72;80.31
76897;SHT30;65856;52.178;21.176;2023-04-16T00:54:47;9.67;80.40
76897;SHT30;65856;52.178;21.176;2023-04-16T00:57:18;9.64;80.40
76897;SHT30;65856;52.178;21.176;2023-04-16T00:59:49;9.66;80.42
76897;SHT30;65856;52.178;21.176;2023-04-16T01:02:22;9.67;80.40
76897;SHT30;65856;52.178;21.176;2023-04-16T01:04:53;9.69;80.39
76897;SHT30;65856;52.178;21.176;2023-04-16T01:07:24;9.69;80.30
76897;SHT30;65856;52.178;21.176;2023-04-16T01:09:55;9.68;80.30
76897;SHT30;65856;52.178;21.176;2023-04-16T01:12:25;9.66;80.30
76897;SHT30;65856;52.178;21.176;2023-04-16T01:14:56;9.63;80.32
76897;SHT30;65856;52.178;21.176;2023-04-16T01:17:27;9.62;80.31
76897;SHT30;65856;52.178;21.176;2023-04-16T01:21:00;9.63;80.30
76897;SHT30;65856;52.178;21.176;2023-04-16T01:23:31;9.66;80.30
76897;SHT30;65856;52.178;21.176;2023-04-16T01:26:02;9.66;80.30
76897;SHT30;65856;52.178;21.176;2023-04-16T01:28:32;9.64;80.30
76897;SHT30;65856;52.178;21.176;2023-04-16T01:31:03;9.62;80.30
76897;SHT30;65856;52.178;21.176;2023-04-16T01:33:34;9.63;80.29
76897;SHT30;65856;52.178;21.176;2023-04-16T01:36:05;9.62;80.28
76897;SHT30;65856;52.178;21.176;2023-04-16T01:38:36;9.63;80.30
76897;SHT30;65856;52.178;21.176;2023-04-16T01:41:07;9.61;80.22
76897;SHT30;65856;52.178;21.176;2023-04-16T01:43:38;9.62;80.23
76897;SHT30;65856;52.178;21.176;2023-04-16T01:46:12;9.61;80.21
76897;SHT30;65856;52.178;21.176;2023-04-16T01:48:47;9.60;80.20
76897;SHT30;65856;52.178;21.176;2023-04-16T01:51:20;9.60;80.19
76897;SHT30;65856;52.178;21.176;2023-04-16T01:53:51;9.59;80.20
76897;SHT30;65856;52.178;21.176;2023-04-16T01:56:23;9.55;80.20
76897;SHT30;65856;52.178;21.176;2023-04-16T01:58:54;9.58;80.23
76897;SHT30;65856;52.178;21.176;2023-04-16T02:01:25;9.55;80.23
76897;SHT30;65856;52.178;21.176;2023-04-16T02:03:55;9.55;80.25
76897;SHT30;65856;52.178;21.176;2023-04-16T02:06:26;9.53;80.27
76897;SHT30;65856;52.178;21.176;2023-04-16T02:08:57;9.55;80.30
76897;SHT30;65856;52.178;21.176;2023-04-16T02:11:28;9.55;80.27
76897;SHT30;65856;52.178;21.176;2023-04-16T02:13:59;9.55;80.28
76897;SHT30;65856;52.178;21.176;2023-04-16T02:16:30;9.56;80.25
76897;SHT30;65856;52.178;21.176;2023-04-16T02:19:00;9.54;80.22
76897;SHT30;65856;52.178;21.176;2023-04-16T02:21:31;9.54;80.22
76897;SHT30;65856;52.178;21.176;2023-04-16T02:24:02;9.51;80.21
76897;SHT30;65856;52.178;21.176;2023-04-16T02:26:33;9.50;80.21
76897;SHT30;65856;52.178;21.176;2023-04-16T02:29:04;9.49;80.22
76897;SHT30;65856;52.178;21.176;2023-04-16T02:31:35;9.49;80.23
76897;SHT30;65856;52.178;21.176;2023-04-16T02:34:06;9.50;80.23
76897;SHT30;65856;52.178;21.176;2023-04-16T02:36:37;9.45;80.21
76897;SHT30;65856;52.178;21.176;2023-04-16T02:39:07;9.44;80.29
76897;SHT30;65856;52.178;21.176;2023-04-16T02:41:38;9.40;80.31
76897;SHT30;65856;52.178;21.176;2023-04-16T02:44:09;9.39;80.39
76897;SHT30;65856;52.178;21.176;2023-04-16T02:46:40;9.40;80.40
76897;SHT30;65856;52.178;21.176;2023-04-16T02:49:10;9.39;80.38
76897;SHT30;65856;52.178;21.176;2023-04-16T02:51:41;9.39;80.40
76897;SHT30;65856;52.178;21.176;2023-04-16T02:54:12;9.39;80.41
76897;SHT30;65856;52.178;21.176;2023-04-16T02:56:43;9.39;80.45
76897;SHT30;65856;52.178;21.176;2023-04-16T02:59:13;9.38;80.46
76897;SHT30;65856;52.178;21.176;2023-04-16T03:01:44;9.34;80.49
76897;SHT30;65856;52.178;21.176;2023-04-16T03:06:38;9.34;80.60
76897;SHT30;65856;52.178;21.176;2023-04-16T03:09:06;9.31;80.60
76897;SHT30;65856;52.178;21.176;2023-04-16T03:11:33;9.30;80.66
76897;SHT30;65856;52.178;21.176;2023-04-16T03:14:01;9.29;80.69
76897;SHT30;65856;52.178;21.176;2023-04-16T03:16:30;9.28;80.71
76897;SHT30;65856;52.178;21.176;2023-04-16T03:18:58;9.28;80.77
76897;SHT30;65856;52.178;21.176;2023-04-16T03:21:26;9.30;80.79
76897;SHT30;65856;52.178;21.176;2023-04-16T03:23:54;9.31;80.80
76897;SHT30;65856;52.178;21.176;2023-04-16T03:26:22;9.31;80.80
76897;SHT30;65856;52.178;21.176;2023-04-16T03:28:50;9.30;80.80
76897;SHT30;65856;52.178;21.176;2023-04-16T03:31:18;9.27;80.86
76897;SHT30;65856;52.178;21.176;2023-04-16T03:33:48;9.24;80.94
76897;SHT30;65856;52.178;21.176;2023-04-16T03:36:16;9.22;81.00
76897;SHT30;65856;52.178;21.176;2023-04-16T03:38:44;9.23;81.00
76897;SHT30;65856;52.178;21.176;2023-04-16T03:41:12;9.22;81.09
76897;SHT30;65856;52.178;21.176;2023-04-16T03:43:40;9.23;81.10
76897;SHT30;65856;52.178;21.176;2023-04-16T03:46:08;9.23;81.10
76897;SHT30;65856;52.178;21.176;2023-04-16T03:48:36;9.22;81.14
76897;SHT30;65856;52.178;21.176;2023-04-16T03:51:04;9.20;81.20
76897;SHT30;65856;52.178;21.176;2023-04-16T03:53:32;9.18;81.21
76897;SHT30;65856;52.178;21.176;2023-04-16T03:56:00;9.17;81.28
76897;SHT30;65856;52.178;21.176;2023-04-16T03:58:28;9.14;81.34
76897;SHT30;65856;52.178;21.176;2023-04-16T04:00:56;9.14;81.40
76897;SHT30;65856;52.178;21.176;2023-04-16T04:06:46;9.18;81.31
76897;SHT30;65856;52.178;21.176;2023-04-16T04:09:14;9.16;81.33
76897;SHT30;65856;52.178;21.176;2023-04-16T04:11:42;9.15;81.34
76897;SHT30;65856;52.178;21.176;2023-04-16T04:14:10;9.15;81.32
76897;SHT30;65856;52.178;21.176;2023-04-16T04:16:38;9.15;81.31
76897;SHT30;65856;52.178;21.176;2023-04-16T04:19:06;9.15;81.30
76897;SHT30;65856;52.178;21.176;2023-04-16T04:21:34;9.16;81.30
76897;SHT30;65856;52.178;21.176;2023-04-16T04:24:03;9.14;81.32
76897;SHT30;65856;52.178;21.176;2023-04-16T04:26:31;9.15;81.39
76897;SHT30;65856;52.178;21.176;2023-04-16T04:28:59;9.15;81.39
76897;SHT30;65856;52.178;21.176;2023-04-16T04:31:27;9.16;81.40
76897;SHT30;65856;52.178;21.176;2023-04-16T04:33:55;9.18;81.45
76897;SHT30;65856;52.178;21.176;2023-04-16T04:36:23;9.19;81.48
76897;SHT30;65856;52.178;21.176;2023-04-16T04:38:52;9.21;81.44
76897;SHT30;65856;52.178;21.176;2023-04-16T04:41:20;9.23;81.41
76897;SHT30;65856;52.178;21.176;2023-04-16T04:43:48;9.26;81.49
76897;SHT30;65856;52.178;21.176;2023-04-16T04:46:16;9.27;81.48
76897;SHT30;65856;52.178;21.176;2023-04-16T04:48:44;9.27;81.40
76897;SHT30;65856;52.178;21.176;2023-04-16T04:51:12;9.26;81.41
76897;SHT30;65856;52.178;21.176;2023-04-16T04:53:40;9.29;81.40
76897;SHT30;65856;52.178;21.176;2023-04-16T04:56:08;9.31;81.40
76897;SHT30;65856;52.178;21.176;2023-04-16T04:58:35;9.34;81.33
76897;SHT30;65856;52.178;21.176;2023-04-16T05:01:03;9.37;81.24
76897;SHT30;65856;52.178;21.176;2023-04-16T05:03:31;9.40;81.23
76897;SHT30;65856;52.178;21.176;2023-04-16T05:05:59;9.42;81.10
76897;SHT30;65856;52.178;21.176;2023-04-16T05:08:27;9.46;81.06
76897;SHT30;65856;52.178;21.176;2023-04-16T05:10:55;9.49;81.08
76897;SHT30;65856;52.178;21.176;2023-04-16T05:13:23;9.54;80.95
76897;SHT30;65856;52.178;21.176;2023-04-16T05:15:51;9.59;80.86
76897;SHT30;65856;52.178;21.176;2023-04-16T05:18:19;9.61;80.60
76897;SHT30;65856;52.178;21.176;2023-04-16T05:20:47;9.61;80.49
76897;SHT30;65856;52.178;21.176;2023-04-16T05:23:15;9.62;80.48
76897;SHT30;65856;52.178;21.176;2023-04-16T05:25:43;9.65;80.41
76897;SHT30;65856;52.178;21.176;2023-04-16T05:28:11;9.68;80.30
76897;SHT30;65856;52.178;21.176;2023-04-16T05:30:38;9.71;80.16
76897;SHT30;65856;52.178;21.176;2023-04-16T05:33:06;9.74;79.91
76897;SHT30;65856;52.178;21.176;2023-04-16T05:35:34;9.75;79.70
76897;SHT30;65856;52.178;21.176;2023-04-16T05:38:02;9.77;79.60
76897;SHT30;65856;52.178;21.176;2023-04-16T05:40:30;9.79;79.51
76897;SHT30;65856;52.178;21.176;2023-04-16T05:42:58;9.80;79.44
76897;SHT30;65856;52.178;21.176;2023-04-16T05:45:26;9.78;79.21
76897;SHT30;65856;52.178;21.176;2023-04-16T05:47:54;9.80;79.34
76897;SHT30;65856;52.178;21.176;2023-04-16T05:50:22;9.83;79.22
76897;SHT30;65856;52.178;21.176;2023-04-16T05:52:50;9.83;79.17
76897;SHT30;65856;52.178;21.176;2023-04-16T05:55:18;9.87;79.22
76897;SHT30;65856;52.178;21.176;2023-04-16T05:57:46;9.89;79.10
76897;SHT30;65856;52.178;21.176;2023-04-16T06:00:14;9.92;79.05
76897;SHT30;65856;52.178;21.176;2023-04-16T06:02:43;9.95;78.94
76897;SHT30;65856;52.178;21.176;2023-04-16T06:05:11;9.96;78.83
76897;SHT30;65856;52.178;21.176;2023-04-16T06:07:39;9.99;78.69
76897;SHT30;65856;52.178;21.176;2023-04-16T06:10:07;10.03;78.57
76897;SHT30;65856;52.178;21.176;2023-04-16T06:12:36;10.08;78.44
76897;SHT30;65856;52.178;21.176;2023-04-16T06:15:05;10.11;77.95
76897;SHT30;65856;52.178;21.176;2023-04-16T06:17:35;10.09;77.75
76897;SHT30;65856;52.178;21.176;2023-04-16T06:20:04;10.11;77.75
76897;SHT30;65856;52.178;21.176;2023-04-16T06:22:34;10.14;77.70
76897;SHT30;65856;52.178;21.176;2023-04-16T06:25:02;10.21;77.76
76897;SHT30;65856;52.178;21.176;2023-04-16T06:27:32;10.27;77.56
76897;SHT30;65856;52.178;21.176;2023-04-16T06:30:00;10.32;77.24
76897;SHT30;65856;52.178;21.176;2023-04-16T06:32:28;10.35;76.96
76897;SHT30;65856;52.178;21.176;2023-04-16T06:34:56;10.38;76.97
76897;SHT30;65856;52.178;21.176;2023-04-16T06:37:24;10.45;76.84
76897;SHT30;65856;52.178;21.176;2023-04-16T06:39:52;10.50;76.60
76897;SHT30;65856;52.178;21.176;2023-04-16T06:42:20;10.52;76.48
76897;SHT30;65856;52.178;21.176;2023-04-16T06:44:48;10.55;76.32
76897;SHT30;65856;52.178;21.176;2023-04-16T06:47:16;10.57;76.24
76897;SHT30;65856;52.178;21.176;2023-04-16T06:49:44;10.59;76.18
76897;SHT30;65856;52.178;21.176;2023-04-16T06:52:12;10.60;76.00
76897;SHT30;65856;52.178;21.176;2023-04-16T06:54:40;10.62;75.90
76897;SHT30;65856;52.178;21.176;2023-04-16T06:57:07;10.64;75.88
76897;SHT30;65856;52.178;21.176;2023-04-16T06:59:36;10.65;75.80
76897;SHT30;65856;52.178;21.176;2023-04-16T07:02:04;10.64;75.72
76897;SHT30;65856;52.178;21.176;2023-04-16T07:04:32;10.65;75.68
76897;SHT30;65856;52.178;21.176;2023-04-16T07:07:00;10.66;75.64
76897;SHT30;65856;52.178;21.176;2023-04-16T07:09:28;10.67;75.55
76897;SHT30;65856;52.178;21.176;2023-04-16T07:11:56;10.65;75.43
76897;SHT30;65856;52.178;21.176;2023-04-16T07:14:24;10.65;75.34
76897;SHT30;65856;52.178;21.176;2023-04-16T07:16:52;10.64;75.23
76897;SHT30;65856;52.178;21.176;2023-04-16T07:19:20;10.63;75.28
76897;SHT30;65856;52.178;21.176;2023-04-16T07:21:48;10.65;75.44
76897;SHT30;65856;52.178;21.176;2023-04-16T07:24:16;10.69;75.35
76897;SHT30;65856;52.178;21.176;2023-04-16T07:26:44;10.73;75.27
76897;SHT30;65856;52.178;21.176;2023-04-16T07:29:12;10.78;75.11
76897;SHT30;65856;52.178;21.176;2023-04-16T07:31:40;10.82;75.10
76897;SHT30;65856;52.178;21.176;2023-04-16T07:34:07;10.85;74.93
76897;SHT30;65856;52.178;21.176;2023-04-16T07:36:35;10.92;74.91
76897;SHT30;65856;52.178;21.176;2023-04-16T07:39:03;10.94;74.71
76897;SHT30;65856;52.178;21.176;2023-04-16T07:41:31;10.94;74.67
76897;SHT30;65856;52.178;21.176;2023-04-16T07:43:59;10.96;74.70
76897;SHT30;65856;52.178;21.176;2023-04-16T07:46:28;11.01;74.57
76897;SHT30;65856;52.178;21.176;2023-04-16T07:48:56;11.05;74.31
76897;SHT30;65856;52.178;21.176;2023-04-16T07:51:24;11.08;74.12
76897;SHT30;65856;52.178;21.176;2023-04-16T07:53:52;11.12;74.28
76897;SHT30;65856;52.178;21.176;2023-04-16T07:56:20;11.21;74.30
76897;SHT30;65856;52.178;21.176;2023-04-16T07:58:48;11.28;74.03
76897;SHT30;65856;52.178;21.176;2023-04-16T08:01:16;11.34;73.94
76897;SHT30;65856;52.178;21.176;2023-04-16T08:03:44;11.40;73.73
76897;SHT30;65856;52.178;21.176;2023-04-16T08:06:12;11.42;73.82
76897;SHT30;65856;52.178;21.176;2023-04-16T08:08:40;11.42;73.82
76897;SHT30;65856;52.178;21.176;2023-04-16T08:11:08;11.42;73.90
76897;SHT30;65856;52.178;21.176;2023-04-16T08:13:36;11.41;73.82
76897;SHT30;65856;52.178;21.176;2023-04-16T08:16:04;11.43;73.61
76897;SHT30;65856;52.178;21.176;2023-04-16T08:18:33;11.43;73.59
76897;SHT30;65856;52.178;21.176;2023-04-16T08:21:02;11.44;73.15
76897;SHT30;65856;52.178;21.176;2023-04-16T08:23:30;11.45;72.87
76897;SHT30;65856;52.178;21.176;2023-04-16T08:25:59;11.44;72.72
76897;SHT30;65856;52.178;21.176;2023-04-16T08:28:27;11.43;72.66
76897;SHT30;65856;52.178;21.176;2023-04-16T08:30:55;11.45;72.62
76897;SHT30;65856;52.178;21.176;2023-04-16T08:33:23;11.48;72.36
76897;SHT30;65856;52.178;21.176;2023-04-16T08:35:51;11.50;72.31
76897;SHT30;65856;52.178;21.176;2023-04-16T08:38:19;11.53;72.36
76897;SHT30;65856;52.178;21.176;2023-04-16T08:40:47;11.55;72.08
76897;SHT30;65856;52.178;21.176;2023-04-16T08:43:15;11.56;71.67
76897;SHT30;65856;52.178;21.176;2023-04-16T08:45:48;11.55;71.52
76897;SHT30;65856;52.178;21.176;2023-04-16T08:48:21;11.56;71.72
76897;SHT30;65856;52.178;21.176;2023-04-16T08:50:51;11.62;71.78
76897;SHT30;65856;52.178;21.176;2023-04-16T08:53:21;11.67;71.45
76897;SHT30;65856;52.178;21.176;2023-04-16T08:56:01;11.73;71.40
76897;SHT30;65856;52.178;21.176;2023-04-16T08:58:33;11.82;71.38
76897;SHT30;65856;52.178;21.176;2023-04-16T09:01:04;11.90;71.00
76897;SHT30;65856;52.178;21.176;2023-04-16T09:03:36;11.94;70.59
76897;SHT30;65856;52.178;21.176;2023-04-16T09:06:04;11.99;70.52
76897;SHT30;65856;52.178;21.176;2023-04-16T09:08:34;12.05;70.54
76897;SHT30;65856;52.178;21.176;2023-04-16T09:11:02;12.14;70.25
76897;SHT30;65856;52.178;21.176;2023-04-16T09:13:31;12.23;70.13
76897;SHT30;65856;52.178;21.176;2023-04-16T09:16:00;12.33;69.95
76897;SHT30;65856;52.178;21.176;2023-04-16T09:18:28;12.38;69.57
76897;SHT30;65856;52.178;21.176;2023-04-16T09:20:57;12.41;69.48
76897;SHT30;65856;52.178;21.176;2023-04-16T09:23:25;12.43;69.48
76897;SHT30;65856;52.178;21.176;2023-04-16T09:25:54;12.49;69.79
76897;SHT30;65856;52.178;21.176;2023-04-16T09:28:39;12.60;69.94
76897;SHT30;65856;52.178;21.176;2023-04-16T09:31:12;12.71;69.29
76897;SHT30;65856;52.178;21.176;2023-04-16T09:33:42;12.76;69.09
76897;SHT30;65856;52.178;21.176;2023-04-16T09:36:29;12.80;68.73
76897;SHT30;65856;52.178;21.176;2023-04-16T09:38:58;12.83;68.49
76897;SHT30;65856;52.178;21.176;2023-04-16T09:41:28;12.86;68.44
76897;SHT30;65856;52.178;21.176;2023-04-16T09:43:58;12.90;68.30
76897;SHT30;65856;52.178;21.176;2023-04-16T09:46:29;12.95;68.37
76897;SHT30;65856;52.178;21.176;2023-04-16T09:49:04;13.05;68.44
76897;SHT30;65856;52.178;21.176;2023-04-16T09:51:36;13.16;67.96
76897;SHT30;65856;52.178;21.176;2023-04-16T09:54:06;13.22;67.67
76897;SHT30;65856;52.178;21.176;2023-04-16T09:56:38;13.29;67.48
76897;SHT30;65856;52.178;21.176;2023-04-16T09:59:15;13.34;66.99
76897;SHT30;65856;52.178;21.176;2023-04-16T10:01:44;13.35;66.77
76897;SHT30;65856;52.178;21.176;2023-04-16T10:04:13;13.40;66.66
76897;SHT30;65856;52.178;21.176;2023-04-16T10:06:42;13.41;66.34
76897;SHT30;65856;52.178;21.176;2023-04-16T10:09:13;13.39;66.37
76897;SHT30;65856;52.178;21.176;2023-04-16T10:11:40;13.41;66.35
76897;SHT30;65856;52.178;21.176;2023-04-16T10:14:09;13.42;66.38
76897;SHT30;65856;52.178;21.176;2023-04-16T10:16:37;13.47;66.52
76897;SHT30;65856;52.178;21.176;2023-04-16T10:19:06;13.53;66.47
76897;SHT30;65856;52.178;21.176;2023-04-16T10:21:34;13.57;66.52
76897;SHT30;65856;52.178;21.176;2023-04-16T10:24:02;13.61;66.07
76897;SHT30;65856;52.178;21.176;2023-04-16T10:26:32;13.56;65.51
76897;SHT30;65856;52.178;21.176;2023-04-16T10:29:02;13.55;66.01
76897;SHT30;65856;52.178;21.176;2023-04-16T10:31:32;13.58;65.70
76897;SHT30;65856;52.178;21.176;2023-04-16T10:34:01;13.57;65.55
76897;SHT30;65856;52.178;21.176;2023-04-16T10:36:33;13.53;65.17
76897;SHT30;65856;52.178;21.176;2023-04-16T10:39:03;13.53;65.27
76897;SHT30;65856;52.178;21.176;2023-04-16T10:41:35;13.57;65.67
76897;SHT30;65856;52.178;21.176;2023-04-16T10:44:04;13.64;65.78
76897;SHT30;65856;52.178;21.176;2023-04-16T10:46:36;13.70;65.26
76897;SHT30;65856;52.178;21.176;2023-04-16T10:49:12;13.72;65.05
76897;SHT30;65856;52.178;21.176;2023-04-16T10:51:43;13.76;65.06
76897;SHT30;65856;52.178;21.176;2023-04-16T10:54:21;13.84;64.97
76897;SHT30;65856;52.178;21.176;2023-04-16T10:56:51;13.91;65.07
76897;SHT30;65856;52.178;21.176;2023-04-16T10:59:23;13.98;64.99
76897;SHT30;65856;52.178;21.176;2023-04-16T11:01:55;14.04;64.74
76897;SHT30;65856;52.178;21.176;2023-04-16T11:04:28;14.10;64.28
76897;SHT30;65856;52.178;21.176;2023-04-16T11:07:02;14.15;64.02
76897;SHT30;65856;52.178;21.176;2023-04-16T11:09:44;14.23;63.64
76897;SHT30;65856;52.178;21.176;2023-04-16T11:12:21;14.30;63.35
76897;SHT30;65856;52.178;21.176;2023-04-16T11:14:53;14.33;63.06
76897;SHT30;65856;52.178;21.176;2023-04-16T11:17:27;14.34;63.17
76897;SHT30;65856;52.178;21.176;2023-04-16T11:19:57;14.37;63.37
76897;SHT30;65856;52.178;21.176;2023-04-16T11:22:25;14.40;63.13
76897;SHT30;65856;52.178;21.176;2023-04-16T11:24:54;14.40;63.20
76897;SHT30;65856;52.178;21.176;2023-04-16T11:27:23;14.43;62.99
76897;SHT30;65856;52.178;21.176;2023-04-16T11:29:58;14.52;63.22
76897;SHT30;65856;52.178;21.176;2023-04-16T11:32:30;14.60;63.17
76897;SHT30;65856;52.178;21.176;2023-04-16T11:34:59;14.66;62.99
76897;SHT30;65856;52.178;21.176;2023-04-16T11:37:33;14.73;63.56
76897;SHT30;65856;52.178;21.176;2023-04-16T11:40:03;14.78;63.44
76897;SHT30;65856;52.178;21.176;2023-04-16T11:42:34;14.81;63.05
76897;SHT30;65856;52.178;21.176;2023-04-16T11:45:05;14.82;62.53
76897;SHT30;65856;52.178;21.176;2023-04-16T11:47:44;14.82;62.38
76897;SHT30;65856;52.178;21.176;2023-04-16T11:50:16;14.83;62.56
76897;SHT30;65856;52.178;21.176;2023-04-16T11:52:46;14.89;62.62
76897;SHT30;65856;52.178;21.176;2023-04-16T11:55:14;14.96;62.93
76897;SHT30;65856;52.178;21.176;2023-04-16T11:57:43;15.11;62.27
76897;SHT30;65856;52.178;21.176;2023-04-16T12:00:12;15.25;62.49
76897;SHT30;65856;52.178;21.176;2023-04-16T12:06:36;15.40;61.33
76897;SHT30;65856;52.178;21.176;2023-04-16T12:09:23;15.46;61.56
76897;SHT30;65856;52.178;21.176;2023-04-16T12:11:52;15.48;61.04
76897;SHT30;65856;52.178;21.176;2023-04-16T12:14:20;15.50;61.09
76897;SHT30;65856;52.178;21.176;2023-04-16T12:16:49;15.53;61.00
76897;SHT30;65856;52.178;21.176;2023-04-16T12:19:16;15.57;60.82
76897;SHT30;65856;52.178;21.176;2023-04-16T12:21:45;15.62;60.83
76897;SHT30;65856;52.178;21.176;2023-04-16T12:24:15;15.64;60.48
76897;SHT30;65856;52.178;21.176;2023-04-16T12:26:46;15.65;60.15
76897;SHT30;65856;52.178;21.176;2023-04-16T12:29:22;15.66;60.33
76897;SHT30;65856;52.178;21.176;2023-04-16T12:31:52;15.66;59.79
76897;SHT30;65856;52.178;21.176;2023-04-16T12:34:21;15.62;59.81
76897;SHT30;65856;52.178;21.176;2023-04-16T12:37:02;15.60;59.78
76897;SHT30;65856;52.178;21.176;2023-04-16T12:39:32;15.59;59.55
76897;SHT30;65856;52.178;21.176;2023-04-16T12:42:00;15.60;59.63
76897;SHT30;65856;52.178;21.176;2023-04-16T12:44:30;15.61;59.66
76897;SHT30;65856;52.178;21.176;2023-04-16T12:46:58;15.62;59.40
76897;SHT30;65856;52.178;21.176;2023-04-16T12:49:25;15.60;59.24
76897;SHT30;65856;52.178;21.176;2023-04-16T12:51:53;15.60;59.45
76897;SHT30;65856;52.178;21.176;2023-04-16T12:54:21;15.63;59.72
76897;SHT30;65856;52.178;21.176;2023-04-16T12:56:53;15.66;59.43
76897;SHT30;65856;52.178;21.176;2023-04-16T12:59:21;15.64;58.82
76897;SHT30;65856;52.178;21.176;2023-04-16T13:01:49;15.64;58.56
76897;SHT30;65856;52.178;21.176;2023-04-16T13:04:17;15.68;58.83
76897;SHT30;65856;52.178;21.176;2023-04-16T13:06:45;15.77;59.10
76897;SHT30;65856;52.178;21.176;2023-04-16T13:09:13;15.86;59.08
76897;SHT30;65856;52.178;21.176;2023-04-16T13:11:41;15.93;58.14
76897;SHT30;65856;52.178;21.176;2023-04-16T13:14:08;15.96;57.87
76897;SHT30;65856;52.178;21.176;2023-04-16T13:16:36;16.03;58.29
76897;SHT30;65856;52.178;21.176;2023-04-16T13:19:04;16.15;57.63
76897;SHT30;65856;52.178;21.176;2023-04-16T13:21:32;16.23;57.31
76897;SHT30;65856;52.178;21.176;2023-04-16T13:24:00;16.24;57.02
76897;SHT30;65856;52.178;21.176;2023-04-16T13:26:28;16.26;56.45
76897;SHT30;65856;52.178;21.176;2023-04-16T13:28:56;16.25;56.62
76897;SHT30;65856;52.178;21.176;2023-04-16T13:31:24;16.25;56.88
76897;SHT30;65856;52.178;21.176;2023-04-16T13:33:52;16.20;56.71
76897;SHT30;65856;52.178;21.176;2023-04-16T13:36:20;16.12;56.87
76897;SHT30;65856;52.178;21.176;2023-04-16T13:38:48;16.02;56.57
76897;SHT30;65856;52.178;21.176;2023-04-16T13:41:16;15.96;56.87
76897;SHT30;65856;52.178;21.176;2023-04-16T13:43:44;15.95;56.81
76897;SHT30;65856;52.178;21.176;2023-04-16T13:46:12;15.93;57.10
76897;SHT30;65856;52.178;21.176;2023-04-16T13:48:40;15.91;57.20
76897;SHT30;65856;52.178;21.176;2023-04-16T13:51:08;15.91;57.46
76897;SHT30;65856;52.178;21.176;2023-04-16T13:53:36;15.93;57.31
76897;SHT30;65856;52.178;21.176;2023-04-16T13:56:04;15.92;56.65
76897;SHT30;65856;52.178;21.176;2023-04-16T13:58:32;15.90;56.92
76897;SHT30;65856;52.178;21.176;2023-04-16T14:01:00;15.91;57.22
76897;SHT30;65856;52.178;21.176;2023-04-16T14:03:28;15.92;56.82
76897;SHT30;65856;52.178;21.176;2023-04-16T14:05:57;15.94;57.09
76897;SHT30;65856;52.178;21.176;2023-04-16T14:08:25;15.97;57.19
76897;SHT30;65856;52.178;21.176;2023-04-16T14:10:53;16.00;57.20
76897;SHT30;65856;52.178;21.176;2023-04-16T14:13:21;16.03;56.74
76897;SHT30;65856;52.178;21.176;2023-04-16T14:15:50;16.06;56.33
76897;SHT30;65856;52.178;21.176;2023-04-16T14:18:20;16.08;55.89
76897;SHT30;65856;52.178;21.176;2023-04-16T14:20:48;16.10;55.71
76897;SHT30;65856;52.178;21.176;2023-04-16T14:23:16;16.15;56.17
76897;SHT30;65856;52.178;21.176;2023-04-16T14:25:43;16.18;55.81
76897;SHT30;65856;52.178;21.176;2023-04-16T14:28:11;16.22;55.88
76897;SHT30;65856;52.178;21.176;2023-04-16T14:30:39;16.25;55.47
76897;SHT30;65856;52.178;21.176;2023-04-16T14:33:07;16.25;55.63
76897;SHT30;65856;52.178;21.176;2023-04-16T14:35:35;16.30;55.34
76897;SHT30;65856;52.178;21.176;2023-04-16T14:38:03;16.32;54.65
76897;SHT30;65856;52.178;21.176;2023-04-16T14:40:31;16.34;54.97
76897;SHT30;65856;52.178;21.176;2023-04-16T14:43:00;16.37;54.83
76897;SHT30;65856;52.178;21.176;2023-04-16T14:45:28;16.43;54.80
76897;SHT30;65856;52.178;21.176;2023-04-16T14:47:57;16.46;54.43
76897;SHT30;65856;52.178;21.176;2023-04-16T14:50:24;16.48;54.81
76897;SHT30;65856;52.178;21.176;2023-04-16T14:52:52;16.48;55.53
76897;SHT30;65856;52.178;21.176;2023-04-16T14:55:21;16.45;55.50
76897;SHT30;65856;52.178;21.176;2023-04-16T14:57:49;16.42;55.97
76897;SHT30;65856;52.178;21.176;2023-04-16T15:00:19;16.42;56.29
76897;SHT30;65856;52.178;21.176;2023-04-16T15:02:48;16.39;56.13
76897;SHT30;65856;52.178;21.176;2023-04-16T15:05:16;16.36;56.21
76897;SHT30;65856;52.178;21.176;2023-04-16T15:07:44;16.31;56.00
76897;SHT30;65856;52.178;21.176;2023-04-16T15:10:12;16.25;55.98
76897;SHT30;65856;52.178;21.176;2023-04-16T15:12:40;16.19;56.09
76897;SHT30;65856;52.178;21.176;2023-04-16T15:15:08;16.20;56.56
76897;SHT30;65856;52.178;21.176;2023-04-16T15:17:37;16.21;56.27
76897;SHT30;65856;52.178;21.176;2023-04-16T15:20:07;16.19;56.09
76897;SHT30;65856;52.178;21.176;2023-04-16T15:22:37;16.19;56.00
76897;SHT30;65856;52.178;21.176;2023-04-16T15:25:06;16.18;56.26
76897;SHT30;65856;52.178;21.176;2023-04-16T15:27:35;16.18;56.25
76897;SHT30;65856;52.178;21.176;2023-04-16T15:30:03;16.18;55.69
76897;SHT30;65856;52.178;21.176;2023-04-16T15:32:33;16.17;55.22
76897;SHT30;65856;52.178;21.176;2023-04-16T15:35:01;16.18;55.59
76897;SHT30;65856;52.178;21.176;2023-04-16T15:37:30;16.18;56.28
76897;SHT30;65856;52.178;21.176;2023-04-16T15:39:58;16.16;56.60
76897;SHT30;65856;52.178;21.176;2023-04-16T15:42:26;16.10;56.36
76897;SHT30;65856;52.178;21.176;2023-04-16T15:44:55;16.03;56.90
76897;SHT30;65856;52.178;21.176;2023-04-16T15:47:24;15.98;57.13